Time;durP1;ratioP1;P1;durP2;ratioP2;P2;SDS_P1;SDS_P2;PMS_P1;PMS_P2;Temp;Humidity;BMP_temperature;BMP_pressure;BME280_temperature;BME280_humidity;BME280_pressure;Samples;Min_cycle;Max_cycle;Signal;HPM_P1;HPM_P2
2022/09/29 00:01:01;;;;;;;0.60;0.60;;;;;;;19.92;100.00;99115.19;5042226;28;20202;-69
2022/09/29 00:03:28;;;;;;;0.70;0.70;;;;;;;19.84;100.00;99117.25;5063478;28;20198;-69
2022/09/29 00:05:56;;;;;;;0.60;0.60;;;;;;;19.84;100.00;99118.13;5061480;28;20202;-69
2022/09/29 00:08:26;;;;;;;0.65;0.60;;;;;;;19.85;100.00;99119.84;5061594;28;20203;-69
2022/09/29 00:10:53;;;;;;;0.60;0.60;;;;;;;19.71;100.00;99109.84;5027344;28;20212;-69
2022/09/29 00:13:20;;;;;;;1.40;0.80;;;;;;;19.74;100.00;99115.00;5028398;28;20187;-69
2022/09/29 00:15:56;;;;;;;0.60;0.60;;;;;;;19.77;100.00;99117.50;5066684;28;20612;-69
2022/09/29 00:18:24;;;;;;;0.52;0.52;;;;;;;19.70;100.00;99109.88;5067103;28;20282;-69
2022/09/29 00:20:58;;;;;;;0.73;0.70;;;;;;;19.60;100.00;99095.38;5065585;28;20195;-68
2022/09/29 00:23:25;;;;;;;0.50;0.50;;;;;;;19.64;100.00;99118.03;5066329;28;20206;-69
2022/09/29 00:26:00;;;;;;;0.63;0.63;;;;;;;19.67;100.00;99121.38;5047135;28;20655;-70
2022/09/29 00:28:27;;;;;;;0.82;0.80;;;;;;;19.55;100.00;99119.19;5066259;28;20194;-69
2022/09/29 00:30:53;;;;;;;0.73;0.65;;;;;;;19.56;100.00;99122.69;5066086;28;20255;-69
2022/09/29 00:33:20;;;;;;;0.70;0.70;;;;;;;19.51;100.00;99124.66;5067967;28;20260;-69
2022/09/29 00:35:58;;;;;;;0.75;0.70;;;;;;;19.53;100.00;99128.06;5067110;28;20238;-69
2022/09/29 00:38:25;;;;;;;0.82;0.70;;;;;;;19.35;100.00;99124.31;5065944;28;20277;-69
2022/09/29 00:40:52;;;;;;;0.68;0.63;;;;;;;19.35;100.00;99118.19;5066950;28;20206;-69
2022/09/29 00:43:22;;;;;;;1.17;0.80;;;;;;;19.45;100.00;99114.34;5069449;28;20256;-69
2022/09/29 00:45:50;;;;;;;1.08;0.80;;;;;;;19.35;100.00;99112.94;5065826;28;20218;-69
2022/09/29 00:48:21;;;;;;;1.08;0.80;;;;;;;19.28;100.00;99105.28;5064854;28;20203;-69
2022/09/29 00:50:52;;;;;;;0.80;0.80;;;;;;;19.21;100.00;99110.78;5033747;28;21055;-69
2022/09/29 00:53:22;;;;;;;0.80;0.80;;;;;;;19.17;100.00;99110.03;5065966;28;20209;-69
2022/09/29 00:55:53;;;;;;;0.70;0.70;;;;;;;19.14;100.00;99106.66;5064958;28;20231;-69
2022/09/29 00:58:26;;;;;;;0.70;0.70;;;;;;;19.09;100.00;99105.97;5064407;28;20207;-69
2022/09/29 01:00:54;;;;;;;1.17;0.70;;;;;;;19.03;100.00;99111.44;5026975;28;20778;-69
2022/09/29 01:03:23;;;;;;;0.60;0.60;;;;;;;19.04;100.00;99103.50;5065630;28;20201;-69
2022/09/29 01:05:54;;;;;;;0.93;0.75;;;;;;;19.01;100.00;99108.03;5066684;28;20202;-69
2022/09/29 01:08:26;;;;;;;1.33;0.73;;;;;;;18.95;100.00;99106.44;5065006;28;20210;-69
2022/09/29 01:10:54;;;;;;;1.17;0.77;;;;;;;18.86;100.00;99100.66;5064045;28;20210;-69
2022/09/29 01:13:21;;;;;;;0.75;0.70;;;;;;;18.70;100.00;99082.78;5066819;28;20199;-69
2022/09/29 01:15:48;;;;;;;0.63;0.63;;;;;;;18.73;100.00;99100.19;5066327;28;20199;-69
2022/09/29 01:18:15;;;;;;;0.60;0.60;;;;;;;18.69;100.00;99098.63;5065414;28;20203;-69
2022/09/29 01:20:52;;;;;;;0.70;0.70;;;;;;;18.72;100.00;99102.00;5065048;28;20207;-69
2022/09/29 01:23:48;;;;;;;1.00;0.80;;;;;;;18.54;100.00;99086.84;5064451;28;20199;-69
2022/09/29 01:26:59;;;;;;;0.70;0.70;;;;;;;18.64;100.00;99092.66;5002103;28;20623;-69
2022/09/29 01:30:01;;;;;;;0.75;0.70;;;;;;;18.61;100.00;99098.00;4945527;28;20559;-69
2022/09/29 01:32:40;;;;;;;0.60;0.60;;;;;;;18.47;100.00;99071.31;4943120;28;20206;-69
2022/09/29 01:35:14;;;;;;;0.70;0.70;;;;;;;18.52;100.00;99098.28;4914491;29;20202;-68
2022/09/29 01:37:53;;;;;;;0.60;0.60;;;;;;;18.34;100.00;99074.31;4867736;29;20221;-69
2022/09/29 01:40:29;;;;;;;0.60;0.60;;;;;;;18.43;100.00;99093.31;4917521;28;20198;-68
2022/09/29 01:43:04;;;;;;;0.73;0.73;;;;;;;18.42;100.00;99092.47;4947312;28;20298;-68
2022/09/29 01:45:34;;;;;;;0.70;0.70;;;;;;;18.27;100.00;99078.06;4943923;28;20671;-69
2022/09/29 01:48:07;;;;;;;0.70;0.70;;;;;;;18.34;100.00;99092.69;4944763;28;20215;-69
2022/09/29 01:50:39;;;;;;;0.60;0.60;;;;;;;18.31;100.00;99086.69;4930393;28;20209;-69
2022/09/29 01:53:11;;;;;;;0.75;0.70;;;;;;;18.15;100.00;99057.47;4912650;28;20203;-69
2022/09/29 01:55:43;;;;;;;0.70;0.70;;;;;;;18.29;100.00;99083.28;4943497;28;20230;-69
2022/09/29 01:58:15;;;;;;;0.80;0.80;;;;;;;18.25;100.00;99086.91;4943550;28;22022;-69
2022/09/29 02:00:49;;;;;;;2.15;0.90;;;;;;;18.22;100.00;99087.88;4944236;28;20207;-69
2022/09/29 02:03:22;;;;;;;1.35;0.80;;;;;;;18.21;100.00;99087.91;4971497;28;20204;-68
2022/09/29 02:05:52;;;;;;;0.95;0.80;;;;;;;18.21;100.00;99087.91;5037891;28;20199;-69
2022/09/29 02:08:32;;;;;;;0.95;0.70;;;;;;;18.19;100.00;99085.31;5063910;28;20695;-69
2022/09/29 02:11:02;;;;;;;3.53;1.15;;;;;;;18.20;100.00;99086.16;5064034;28;20325;-68
2022/09/29 02:13:33;;;;;;;3.40;1.25;;;;;;;18.18;100.00;99088.00;5065641;28;20210;-69
2022/09/29 02:16:01;;;;;;;2.10;0.98;;;;;;;18.04;100.00;99085.81;5063912;28;20186;-69
2022/09/29 02:18:34;;;;;;;2.72;1.00;;;;;;;18.09;100.00;99083.88;5064256;28;20199;-69
2022/09/29 02:21:01;;;;;;;1.60;0.90;;;;;;;17.96;100.00;99093.06;5068009;28;20195;-69
2022/09/29 02:23:28;;;;;;;1.88;0.90;;;;;;;17.87;100.00;99075.00;5071096;28;20217;-68
2022/09/29 02:25:59;;;;;;;3.42;1.10;;;;;;;17.92;100.00;99070.44;5071039;28;20195;-69
2022/09/29 02:28:26;;;;;;;1.38;0.90;;;;;;;17.80;100.00;99076.91;5071164;28;20199;-69
2022/09/29 02:30:53;;;;;;;1.50;0.80;;;;;;;17.84;100.00;99088.16;5066956;28;20206;-69
2022/09/29 02:33:21;;;;;;;2.42;1.02;;;;;;;17.73;100.00;99070.13;5063356;28;20232;-69
2022/09/29 02:36:03;;;;;;;0.98;0.63;;;;;;;17.82;100.00;99090.00;5063896;28;20285;-68
2022/09/29 02:38:40;;;;;;;1.88;0.90;;;;;;;17.74;100.00;99086.72;5064358;28;20203;-69
2022/09/29 02:41:13;;;;;;;0.70;0.70;;;;;;;17.66;100.00;99093.97;5063431;28;20198;-69
2022/09/29 02:44:02;;;;;;;1.05;0.80;;;;;;;17.59;100.00;99084.56;5064943;28;20191;-69
2022/09/29 02:46:42;;;;;;;0.63;0.63;;;;;;;17.52;100.00;99075.97;5061939;28;20203;-69
2022/09/29 02:49:28;;;;;;;1.77;0.90;;;;;;;17.44;100.00;99074.50;5062726;28;20187;-69
2022/09/29 02:52:00;;;;;;;0.90;0.80;;;;;;;17.46;100.00;99085.78;5060717;28;21013;-69
2022/09/29 02:54:42;;;;;;;1.70;0.82;;;;;;;17.49;100.00;99090.94;5062816;28;20211;-68
2022/09/29 02:57:18;;;;;;;1.52;0.85;;;;;;;17.46;100.00;99096.28;5062599;28;20309;-68
2022/09/29 02:59:55;;;;;;;1.65;0.93;;;;;;;17.23;100.00;99050.63;5063677;28;20233;-69
2022/09/29 03:02:25;;;;;;;0.82;0.80;;;;;;;17.30;100.00;99085.38;5063197;28;20199;-69
2022/09/29 03:04:52;;;;;;;1.00;0.80;;;;;;;17.18;100.00;99091.81;5063555;28;20202;-69
2022/09/29 03:07:21;;;;;;;0.73;0.73;;;;;;;17.28;100.00;99074.94;5027725;28;20298;-68
2022/09/29 03:09:48;;;;;;;1.35;0.80;;;;;;;17.22;100.00;99080.34;5063743;28;20255;-69
2022/09/29 03:12:14;;;;;;;0.63;0.63;;;;;;;17.31;100.00;99087.09;5062468;28;20211;-68
2022/09/29 03:14:41;;;;;;;1.23;0.80;;;;;;;17.29;100.00;99083.66;5064854;28;20576;-69
2022/09/29 03:17:08;;;;;;;1.02;0.70;;;;;;;17.39;100.00;99086.88;5062961;28;21056;-69
2022/09/29 03:19:35;;;;;;;1.88;0.95;;;;;;;17.42;100.00;99078.91;5063724;28;20655;-68
2022/09/29 03:22:02;;;;;;;2.45;0.98;;;;;;;17.44;100.00;99082.38;5028363;28;20332;-69
2022/09/29 03:24:31;;;;;;;0.75;0.70;;;;;;;17.53;100.00;99084.72;5062943;28;20227;-69
2022/09/29 03:26:58;;;;;;;1.75;0.90;;;;;;;17.48;100.00;99084.00;5063571;28;20203;-69
2022/09/29 03:29:25;;;;;;;1.35;0.82;;;;;;;17.44;100.00;99082.38;5063041;28;20267;-69
2022/09/29 03:31:51;;;;;;;1.02;0.80;;;;;;;17.44;100.00;99087.63;5062929;28;20199;-69
2022/09/29 03:34:18;;;;;;;0.70;0.70;;;;;;;17.41;100.00;99088.53;5062618;28;20207;-69
2022/09/29 03:36:45;;;;;;;0.63;0.60;;;;;;;17.43;100.00;99093.75;5064224;28;20226;-69
2022/09/29 03:39:12;;;;;;;0.60;0.60;;;;;;;17.40;100.00;99089.47;5063005;28;20206;-69
2022/09/29 03:41:40;;;;;;;0.80;0.80;;;;;;;17.49;100.00;99096.19;5064367;28;20202;-68
2022/09/29 03:44:06;;;;;;;0.60;0.60;;;;;;;17.45;100.00;99095.41;5066161;28;20647;-69
2022/09/29 03:46:33;;;;;;;0.77;0.77;;;;;;;17.43;100.00;99085.88;5062699;28;20614;-69
2022/09/29 03:49:00;;;;;;;0.68;0.65;;;;;;;17.48;100.00;99089.25;5065582;28;20195;-69
2022/09/29 03:51:27;;;;;;;0.60;0.60;;;;;;;17.03;100.00;99004.94;5063678;28;20198;-69
2022/09/29 03:53:54;;;;;;;0.60;0.60;;;;;;;17.55;100.00;99088.16;5062982;28;20199;-69
2022/09/29 03:56:21;;;;;;;0.60;0.60;;;;;;;17.51;100.00;99086.53;5064946;28;20980;-69
2022/09/29 03:58:49;;;;;;;1.95;0.90;;;;;;;17.55;100.00;99075.06;5066798;28;20698;-72
2022/09/29 04:01:16;;;;;;;2.05;1.00;;;;;;;17.61;100.00;99085.38;5067182;28;20190;-70
2022/09/29 04:03:43;;;;;;;0.85;0.77;;;;;;;17.64;100.00;99096.63;5066380;28;20268;-69
2022/09/29 04:06:09;;;;;;;0.63;0.63;;;;;;;17.66;100.00;99089.56;5066650;28;20663;-69
2022/09/29 04:08:37;;;;;;;0.65;0.65;;;;;;;17.64;100.00;99078.28;5065952;28;20206;-69
2022/09/29 04:11:04;;;;;;;0.60;0.60;;;;;;;17.78;100.00;99094.47;5066561;28;20230;-69
2022/09/29 04:13:31;;;;;;;1.90;1.80;;;;;;;17.71;100.00;99081.59;5067006;28;20203;-69
2022/09/29 04:16:01;;;;;;;1.10;0.75;;;;;;;17.86;100.00;99091.63;5066568;28;20206;-69
2022/09/29 04:18:27;;;;;;;0.70;0.70;;;;;;;17.82;100.00;99095.25;5065979;28;20661;-69
2022/09/29 04:20:56;;;;;;;0.50;0.50;;;;;;;17.75;100.00;99078.84;5030916;28;20206;-69
2022/09/29 04:23:22;;;;;;;0.88;0.70;;;;;;;17.75;100.00;99077.97;5066806;28;20217;-69
2022/09/29 04:25:49;;;;;;;0.93;0.70;;;;;;;17.92;100.00;99111.53;5066559;28;20320;-69
2022/09/29 04:28:16;;;;;;;0.70;0.70;;;;;;;17.92;100.00;99109.78;5045932;28;20206;-69
2022/09/29 04:30:43;;;;;;;2.33;0.90;;;;;;;17.93;100.00;99114.13;5066044;28;20202;-69
2022/09/29 04:33:11;;;;;;;1.13;0.80;;;;;;;18.06;100.00;99119.84;5030326;28;20667;-69
2022/09/29 04:35:38;;;;;;;1.23;0.70;;;;;;;17.84;100.00;99109.16;5067231;28;20203;-69
2022/09/29 04:38:07;;;;;;;3.95;1.17;;;;;;;17.81;100.00;99098.75;5047530;28;20307;-68
2022/09/29 04:40:34;;;;;;;3.53;1.10;;;;;;;18.05;100.00;99123.41;5030089;28;20198;-69
2022/09/29 04:43:01;;;;;;;1.40;0.90;;;;;;;18.14;100.00;99121.34;5068581;28;20191;-68
2022/09/29 04:45:27;;;;;;;0.73;0.73;;;;;;;18.15;100.00;99115.19;5066803;28;20210;-69
2022/09/29 04:47:54;;;;;;;2.92;1.05;;;;;;;18.23;100.00;99113.19;5065646;28;20206;-69
2022/09/29 04:50:22;;;;;;;2.38;1.08;;;;;;;18.40;100.00;99115.28;5069189;28;20203;-71
2022/09/29 04:52:49;;;;;;;0.60;0.60;;;;;;;18.38;100.00;99121.47;5065924;28;20664;-69
2022/09/29 04:55:16;;;;;;;3.40;1.02;;;;;;;18.43;100.00;99124.81;5065092;28;20207;-71
2022/09/29 04:57:44;;;;;;;0.77;0.77;;;;;;;18.32;100.00;99131.28;5065575;28;20668;-69
2022/09/29 05:00:12;;;;;;;0.65;0.65;;;;;;;18.38;100.00;99121.47;5064811;28;20665;-70
2022/09/29 05:02:39;;;;;;;1.30;0.80;;;;;;;18.42;100.00;99136.22;5045160;28;20213;-70
2022/09/29 05:05:07;;;;;;;0.70;0.70;;;;;;;18.38;100.00;99132.81;5064569;28;20214;-69
2022/09/29 05:07:37;;;;;;;0.70;0.70;;;;;;;18.29;100.00;99126.13;5064868;28;20215;-69
2022/09/29 05:10:04;;;;;;;1.38;0.70;;;;;;;18.24;100.00;99114.03;5065411;28;20214;-68
2022/09/29 05:12:31;;;;;;;0.70;0.70;;;;;;;18.40;100.00;99135.41;5066864;28;21782;-69
2022/09/29 05:14:58;;;;;;;0.70;0.70;;;;;;;18.34;100.00;99144.31;5067941;28;20195;-66
2022/09/29 05:17:25;;;;;;;1.20;0.80;;;;;;;18.30;100.00;99135.69;5065042;28;20234;-68
2022/09/29 05:19:51;;;;;;;3.08;1.00;;;;;;;18.46;100.00;99143.94;5064609;28;20242;-69
2022/09/29 05:22:23;;;;;;;1.92;0.95;;;;;;;18.72;100.00;99137.91;5061382;28;20211;-71
2022/09/29 05:24:51;;;;;;;0.80;0.80;;;;;;;18.87;100.00;99147.03;5061671;28;20219;-72
2022/09/29 05:27:18;;;;;;;3.50;1.15;;;;;;;18.97;100.00;99143.19;5055633;28;20209;-71
2022/09/29 05:29:45;;;;;;;1.63;0.90;;;;;;;19.24;100.00;99155.34;5061896;28;20573;-72
2022/09/29 05:32:12;;;;;;;1.98;0.95;;;;;;;19.42;100.00;99164.41;5060954;28;20207;-71
2022/09/29 05:34:39;;;;;;;0.70;0.70;;;;;;;19.34;100.00;99146.25;5061469;28;20588;-72
2022/09/29 05:37:06;;;;;;;1.05;0.73;;;;;;;19.63;100.00;99172.38;5064781;28;20195;-71
2022/09/29 05:39:33;;;;;;;1.10;0.80;;;;;;;19.86;100.00;99168.91;5060076;28;20203;-71
2022/09/29 05:42:02;;;;;;;0.70;0.70;;;;;;;20.09;100.00;99170.66;5067748;28;20273;-71
2022/09/29 05:44:29;;;;;;;1.98;0.90;;;;;;;20.13;100.00;99165.25;5074422;28;20283;-72
2022/09/29 05:46:56;;;;;;;0.60;0.60;;;;;;;20.20;100.00;99168.50;5091622;28;20212;-71
2022/09/29 05:49:22;;;;;;;0.70;0.70;;;;;;;20.25;100.00;99154.25;5091349;28;20267;-71
2022/09/29 05:51:49;;;;;;;1.15;0.75;;;;;;;20.50;100.00;99169.97;5074482;28;20199;-74
2022/09/29 05:54:16;;;;;;;2.25;0.95;;;;;;;20.67;100.00;99170.16;5068191;28;20663;-72
2022/09/29 05:56:43;;;;;;;0.90;0.75;;;;;;;20.76;100.00;99166.28;5070196;28;20234;-72
2022/09/29 05:59:12;;;;;;;0.60;0.60;;;;;;;20.81;100.00;99171.34;5072668;28;20249;-72
2022/09/29 06:01:39;;;;;;;1.75;0.90;;;;;;;20.69;100.00;99149.03;5051771;28;20207;-72
2022/09/29 06:04:06;;;;;;;0.70;0.70;;;;;;;20.82;100.00;99152.84;5068319;28;21078;-72
2022/09/29 06:06:35;;;;;;;0.60;0.60;;;;;;;20.83;100.00;99154.56;5064474;28;20226;-71
2022/09/29 06:09:02;;;;;;;0.63;0.63;;;;;;;20.54;100.00;99141.72;5035601;28;20195;-73
2022/09/29 06:11:31;;;;;;;3.72;1.20;;;;;;;20.33;100.00;99132.06;5070515;28;20282;-71
2022/09/29 06:13:58;;;;;;;0.70;0.70;;;;;;;19.95;100.00;99136.13;5070695;28;20305;-71
2022/09/29 06:16:28;;;;;;;0.77;0.77;;;;;;;19.70;100.00;99110.75;5070452;28;20317;-71
2022/09/29 06:18:55;;;;;;;1.95;0.95;;;;;;;19.91;100.00;99145.03;5077818;28;20278;-71
2022/09/29 06:21:25;;;;;;;0.65;0.65;;;;;;;20.01;100.00;99151.69;5090456;28;20629;-70
2022/09/29 06:23:53;;;;;;;0.90;0.90;;;;;;;20.05;100.00;99148.88;5090895;28;20244;-71
2022/09/29 06:26:21;;;;;;;1.55;0.73;;;;;;;20.27;100.00;99188.41;5087021;28;20649;-71
2022/09/29 06:28:48;;;;;;;0.73;0.73;;;;;;;19.84;100.00;99183.03;5069455;28;20233;-70
2022/09/29 06:31:18;;;;;;;0.68;0.68;;;;;;;19.93;100.00;99170.41;5088243;28;20198;-71
2022/09/29 06:33:46;;;;;;;0.70;0.70;;;;;;;20.20;100.00;99187.78;5090793;28;20580;-71
2022/09/29 06:39:02;;;;;;;0.63;0.63;;;;;;;20.31;100.00;99197.94;5070128;28;20237;-70
2022/09/29 06:41:29;;;;;;;2.45;1.00;;;;;;;20.45;100.00;99200.88;5070256;28;20214;-72
2022/09/29 06:43:56;;;;;;;0.75;0.75;;;;;;;20.59;100.00;99213.50;5070301;28;20738;-71
2022/09/29 06:46:25;;;;;;;1.35;0.82;;;;;;;20.64;100.00;99208.91;5062320;28;20202;-71
2022/09/29 06:48:54;;;;;;;0.63;0.63;;;;;;;20.81;100.00;99203.81;5069609;28;20293;-71
2022/09/29 06:51:22;;;;;;;1.08;0.80;;;;;;;20.83;100.00;99209.91;5068293;28;20207;-71
2022/09/29 06:53:49;;;;;;;0.57;0.57;;;;;;;20.81;100.00;99213.50;5063199;28;20230;-71
2022/09/29 06:56:17;;;;;;;1.10;1.02;;;;;;;20.62;100.00;99223.91;5069631;28;20222;-71
2022/09/29 06:58:44;;;;;;;1.75;0.85;;;;;;;20.55;100.00;99211.91;5072285;28;20352;-71
2022/09/29 07:01:11;;;;;;;0.70;0.70;;;;;;;20.55;100.00;99209.28;5070106;28;20199;-71
2022/09/29 07:03:38;;;;;;;0.60;0.60;;;;;;;20.75;100.00;99198.81;5070051;28;20637;-72
2022/09/29 07:06:09;;;;;;;1.13;0.75;;;;;;;20.90;100.00;99199.97;5070012;28;20210;-72
2022/09/29 07:08:38;;;;;;;0.68;0.68;;;;;;;20.87;100.00;99181.66;5069890;28;20714;-76
2022/09/29 07:11:06;;;;;;;0.77;0.77;;;;;;;21.07;100.00;99211.53;5069914;28;20265;-71
2022/09/29 07:13:33;;;;;;;0.65;0.65;;;;;;;20.90;100.00;99197.34;5069626;28;20211;-71
2022/09/29 07:16:05;;;;;;;2.60;1.00;;;;;;;21.01;100.00;99209.13;5069641;28;20289;-71
2022/09/29 07:18:32;;;;;;;1.05;0.80;;;;;;;21.12;100.00;99211.34;5069559;28;20319;-70
2022/09/29 07:20:59;;;;;;;1.23;0.80;;;;;;;21.17;100.00;99212.91;5033430;28;20567;-70
2022/09/29 07:23:27;;;;;;;3.92;1.40;;;;;;;21.25;100.00;99218.72;5069734;28;20194;-71
2022/09/29 07:25:54;;;;;;;1.13;0.70;;;;;;;21.43;100.00;99209.16;5050742;28;20198;-72
2022/09/29 07:28:21;;;;;;;1.75;0.77;;;;;;;21.63;100.00;99221.47;5063059;28;20211;-72
2022/09/29 07:33:46;;;;;;;0.80;0.80;;;;;;;22.35;100.00;99221.75;5091465;27;1344402;-78
2022/09/29 07:36:14;;;;;;;2.13;1.05;;;;;;;22.38;100.00;99217.19;5129085;28;20226;-77
2022/09/29 07:38:41;;;;;;;1.25;0.90;;;;;;;22.36;100.00;99215.56;5116492;28;20316;-80
2022/09/29 07:41:09;;;;;;;0.90;0.70;;;;;;;22.47;100.00;99235.28;5109592;28;20653;-79
2022/09/29 07:43:36;;;;;;;1.63;0.98;;;;;;;22.21;100.00;99203.91;5109955;28;20229;-77
2022/09/29 07:46:04;;;;;;;0.80;0.80;;;;;;;22.44;100.00;99221.34;5074780;28;20617;-78
2022/09/29 07:48:32;;;;;;;1.75;0.90;;;;;;;22.60;100.00;99224.97;5110714;28;20660;-78
2022/09/29 07:51:05;;;;;;;2.22;1.00;;;;;;;22.58;100.00;99213.63;5110450;28;20655;-78
2022/09/29 07:53:33;;;;;;;0.90;0.80;;;;;;;22.79;100.00;99232.91;5110539;28;20284;-78
2022/09/29 07:56:03;;;;;;;0.80;0.75;;;;;;;22.89;99.50;99205.94;5110159;28;20221;-78
2022/09/29 07:58:31;;;;;;;0.68;0.68;;;;;;;23.10;99.41;99239.28;5109859;28;20201;-77
2022/09/29 08:00:58;;;;;;;1.45;0.73;;;;;;;22.88;97.96;99185.72;5109698;28;20202;-78
2022/09/29 08:03:25;;;;;;;1.85;1.00;;;;;;;23.45;97.34;99242.81;5109716;28;20688;-78
2022/09/29 08:05:52;;;;;;;1.73;0.90;;;;;;;23.64;93.34;99229.50;5110226;28;20288;-78
2022/09/29 08:08:20;;;;;;;1.42;0.88;;;;;;;23.93;91.28;99246.53;5109570;28;20649;-78
2022/09/29 08:10:47;;;;;;;0.85;0.80;;;;;;;24.20;86.93;99247.72;5109270;28;20206;-78
2022/09/29 08:13:14;;;;;;;1.27;0.80;;;;;;;24.33;83.50;99247.94;5109434;28;20205;-79
2022/09/29 08:15:41;;;;;;;0.70;0.70;;;;;;;24.51;83.17;99244.25;5057148;28;20204;-78
2022/09/29 08:18:08;;;;;;;1.20;0.75;;;;;;;24.62;79.78;99239.22;5057247;28;20208;-77
2022/09/29 08:20:36;;;;;;;1.85;1.00;;;;;;;24.88;79.03;99240.44;5056903;28;20192;-78
2022/09/29 08:23:03;;;;;;;1.55;1.00;;;;;;;25.03;78.81;99251.03;5109342;28;20222;-78
2022/09/29 08:25:32;;;;;;;1.23;0.90;;;;;;;24.96;79.71;99247.03;5109326;28;20197;-78
2022/09/29 08:27:58;;;;;;;0.80;0.80;;;;;;;24.80;76.45;99251.44;5056281;28;20237;-77
2022/09/29 08:30:25;;;;;;;1.13;0.90;;;;;;;24.80;77.20;99251.44;5109082;28;20205;-81
2022/09/29 08:32:52;;;;;;;0.90;0.90;;;;;;;24.95;75.79;99255.91;5056204;28;20236;-82
2022/09/29 08:35:19;;;;;;;1.13;0.80;;;;;;;24.79;74.92;99255.06;5109007;28;20205;-86
2022/09/29 08:37:46;;;;;;;0.60;0.60;;;;;;;24.81;73.56;99255.81;5056630;28;20679;-78
2022/09/29 08:40:12;;;;;;;1.73;0.90;;;;;;;24.68;72.53;99230.94;5108714;28;20197;-77
2022/09/29 08:42:50;;;;;;;0.90;0.80;;;;;;;25.02;71.07;99256.41;5108308;28;20637;-77
2022/09/29 08:45:25;;;;;;;1.13;0.82;;;;;;;25.21;71.68;99248.25;5094652;28;20205;-78
2022/09/29 08:47:56;;;;;;;1.10;0.80;;;;;;;25.17;72.25;99237.84;5095218;28;20212;-78
2022/09/29 08:50:31;;;;;;;0.60;0.60;;;;;;;25.45;75.00;99241.50;5044977;28;20202;-78
2022/09/29 08:53:05;;;;;;;1.17;0.80;;;;;;;25.77;74.77;99240.47;5094890;28;20266;-79
2022/09/29 08:55:40;;;;;;;0.80;0.80;;;;;;;25.93;73.28;99230.66;5097724;28;20213;-79
2022/09/29 08:58:13;;;;;;;0.82;0.75;;;;;;;26.00;71.95;99216.03;5105534;28;20205;-77
2022/09/29 09:00:44;;;;;;;0.63;0.63;;;;;;;26.11;70.83;99229.47;5094118;28;20209;-84
2022/09/29 09:03:37;;;;;;;2.30;1.05;;;;;;;26.12;70.65;99225.88;5094822;28;20343;-79
2022/09/29 09:06:28;;;;;;;0.80;0.70;;;;;;;26.22;67.90;99222.72;5051585;28;20203;-78
2022/09/29 09:09:10;;;;;;;1.48;0.93;;;;;;;26.13;69.54;99221.44;5050912;28;20199;-77
2022/09/29 09:11:51;;;;;;;1.23;0.80;;;;;;;26.38;68.44;99228.75;5051456;28;20192;-78
2022/09/29 09:14:34;;;;;;;1.05;0.80;;;;;;;26.21;69.02;99213.88;5051178;28;20199;-78
2022/09/29 09:17:14;;;;;;;1.20;0.80;;;;;;;26.37;71.24;99227.03;5051606;28;20203;-77
2022/09/29 09:19:56;;;;;;;0.77;0.70;;;;;;;26.47;70.07;99225.53;5051605;28;20678;-78
2022/09/29 09:22:24;;;;;;;1.95;0.93;;;;;;;26.44;69.17;99228.34;5051445;28;20684;-78
2022/09/29 09:24:57;;;;;;;1.10;0.70;;;;;;;26.56;68.34;99230.25;5051106;28;20206;-78
2022/09/29 09:27:27;;;;;;;1.05;0.90;;;;;;;26.83;69.13;99224.97;5051650;28;20207;-77
2022/09/29 09:30:06;;;;;;;1.95;0.85;;;;;;;26.83;64.51;99228.50;5051280;28;20202;-78
2022/09/29 09:32:38;;;;;;;1.27;0.80;;;;;;;26.90;64.21;99234.25;5050685;28;20366;-78
2022/09/29 09:35:19;;;;;;;1.02;0.80;;;;;;;27.14;62.89;99237.13;5051348;28;20195;-77
2022/09/29 09:37:47;;;;;;;0.80;0.80;;;;;;;27.47;62.34;99241.06;5051283;28;20196;-78
2022/09/29 09:40:19;;;;;;;0.73;0.70;;;;;;;27.70;59.39;99223.53;5051362;28;20676;-79
2022/09/29 09:42:51;;;;;;;0.60;0.60;;;;;;;28.21;58.26;99247.56;5065246;28;20229;-79
2022/09/29 09:45:27;;;;;;;0.70;0.70;;;;;;;28.75;55.56;99251.66;5094117;28;20673;-78
2022/09/29 09:48:01;;;;;;;0.73;0.73;;;;;;;28.96;53.25;99255.41;5093529;28;20194;-78
2022/09/29 09:50:29;;;;;;;1.50;0.90;;;;;;;28.77;53.76;99252.38;5093699;28;20202;-79
2022/09/29 09:53:03;;;;;;;1.25;0.90;;;;;;;28.39;55.64;99262.25;5093269;28;20202;-79
2022/09/29 09:55:33;;;;;;;1.40;0.90;;;;;;;28.81;56.10;99269.88;5092113;28;20202;-79
2022/09/29 09:58:42;;;;;;;1.08;0.70;;;;;;;29.45;54.15;99271.34;5093241;28;20678;-78
2022/09/29 10:01:11;;;;;;;0.75;0.75;;;;;;;29.34;53.72;99265.94;5011253;28;20212;-79
2022/09/29 10:03:38;;;;;;;0.52;0.52;;;;;;;29.26;52.20;99272.78;4978400;28;20224;-78
2022/09/29 10:06:08;;;;;;;0.70;0.70;;;;;;;29.14;51.66;99234.50;5010708;28;20220;-79
2022/09/29 10:08:38;;;;;;;0.50;0.50;;;;;;;29.32;52.47;99248.34;5011157;28;20200;-79
2022/09/29 10:11:19;;;;;;;0.85;0.70;;;;;;;28.89;52.07;99253.31;5011081;28;20680;-78
2022/09/29 10:13:48;;;;;;;0.60;0.60;;;;;;;28.81;52.02;99248.53;5011094;28;20205;-78
2022/09/29 10:16:22;;;;;;;0.80;0.80;;;;;;;28.73;51.28;99245.56;5010837;28;20724;-78
2022/09/29 10:18:51;;;;;;;1.05;0.80;;;;;;;28.53;51.29;99206.09;4962766;28;20251;-79
2022/09/29 10:21:23;;;;;;;1.70;0.85;;;;;;;28.58;50.96;99246.63;5010668;28;20216;-78
2022/09/29 10:23:54;;;;;;;3.13;1.15;;;;;;;28.92;50.95;99247.72;5010623;28;20315;-78
2022/09/29 10:26:24;;;;;;;0.73;0.70;;;;;;;29.39;50.38;99245.09;5010606;28;20201;-79
2022/09/29 10:28:55;;;;;;;1.10;0.90;;;;;;;29.72;46.96;99243.47;5010930;28;20205;-79
2022/09/29 10:31:27;;;;;;;1.25;0.80;;;;;;;29.23;46.32;99232.94;5013565;28;20204;-78
2022/09/29 10:33:59;;;;;;;0.88;0.63;;;;;;;29.57;46.07;99247.31;5030573;28;20234;-79
2022/09/29 10:36:28;;;;;;;1.20;0.70;;;;;;;29.36;45.18;99244.47;5032659;28;20218;-78
2022/09/29 10:38:55;;;;;;;1.15;0.82;;;;;;;29.34;44.86;99241.03;5087216;28;20241;-78
2022/09/29 10:41:24;;;;;;;0.85;0.80;;;;;;;28.83;46.31;99211.88;5106661;28;20281;-78
2022/09/29 10:43:51;;;;;;;2.35;0.95;;;;;;;28.89;45.94;99230.13;5092314;28;20240;-79
2022/09/29 10:46:36;;;;;;;0.60;0.60;;;;;;;29.04;45.68;99228.13;5112682;28;20248;-78
2022/09/29 10:49:13;;;;;;;0.70;0.70;;;;;;;29.18;45.24;99224.44;5102623;28;20291;-79
2022/09/29 10:51:41;;;;;;;1.23;0.88;;;;;;;29.26;44.46;99222.91;5093958;28;20204;-76
2022/09/29 10:54:09;;;;;;;1.90;0.90;;;;;;;29.16;45.24;99194.31;5091922;28;20217;-78
2022/09/29 10:56:36;;;;;;;1.90;0.98;;;;;;;29.45;44.14;99217.03;5091758;28;20209;-77
2022/09/29 10:59:04;;;;;;;1.63;0.90;;;;;;;29.43;45.45;99219.00;5100412;28;20221;-77
2022/09/29 11:01:37;;;;;;;1.35;0.70;;;;;;;29.36;44.79;99223.94;5097118;28;20234;-77
2022/09/29 11:04:17;;;;;;;1.15;0.82;;;;;;;29.09;45.32;99230.47;5092002;28;20218;-77
2022/09/29 11:06:44;;;;;;;1.55;0.90;;;;;;;28.29;47.37;99234.53;5055024;28;20208;-77
2022/09/29 11:09:28;;;;;;;2.35;1.00;;;;;;;27.47;49.79;99237.56;5092296;28;20202;-80
2022/09/29 11:11:57;;;;;;;2.05;1.00;;;;;;;27.31;51.34;99240.38;5107711;28;20598;-78
2022/09/29 11:14:25;;;;;;;2.25;1.02;;;;;;;27.06;53.25;99246.47;5103559;28;20218;-78
2022/09/29 11:16:54;;;;;;;0.80;0.65;;;;;;;27.03;54.37;99251.16;5092059;28;20638;-79
2022/09/29 11:19:23;;;;;;;1.40;0.90;;;;;;;27.01;54.92;99237.06;5105309;28;20218;-78
2022/09/29 11:22:17;;;;;;;0.70;0.70;;;;;;;27.06;55.37;99233.16;5092172;28;20205;-78
2022/09/29 11:25:17;;;;;;;1.80;0.90;;;;;;;27.07;56.29;99237.56;5091951;28;20232;-76
2022/09/29 11:27:59;;;;;;;1.90;0.95;;;;;;;27.18;56.86;99228.84;5029061;28;20203;-78
2022/09/29 11:30:30;;;;;;;2.33;1.08;;;;;;;27.51;56.02;99239.91;5029904;28;20204;-78
2022/09/29 11:33:12;;;;;;;1.55;0.90;;;;;;;27.90;54.98;99239.00;5029651;28;20236;-78
2022/09/29 11:35:56;;;;;;;1.98;0.85;;;;;;;28.33;55.94;99225.34;5029304;28;20196;-78
2022/09/29 11:38:53;;;;;;;3.30;1.38;;;;;;;28.79;52.97;99236.25;5029779;28;20204;-78
2022/09/29 11:41:33;;;;;;;1.15;0.80;;;;;;;29.17;51.30;99233.41;5029740;28;20200;-77
2022/09/29 11:44:11;;;;;;;1.85;1.00;;;;;;;29.28;49.50;99236.16;5029507;28;20231;-78
2022/09/29 11:46:53;;;;;;;1.70;0.80;;;;;;;29.03;49.35;99237.97;5029546;28;20215;-77
2022/09/29 11:49:40;;;;;;;0.60;0.60;;;;;;;29.11;49.39;99225.88;5029528;28;20287;-77